createdAt,value
2023-04-01T00:00:51.054Z,2.36
2023-04-01T00:01:51.090Z,2.85
2023-04-01T00:02:51.278Z,2.43
2023-04-01T00:03:51.291Z,3.20
2023-04-01T00:04:51.207Z,2.61
2023-04-01T00:05:51.299Z,2.77
2023-04-01T00:06:51.339Z,3.10
2023-04-01T00:07:51.390Z,2.57
2023-04-01T00:08:51.438Z,1.64
2023-04-01T00:09:51.506Z,2.00
2023-04-01T00:10:51.562Z,2.34
2023-04-01T00:11:51.608Z,3.38
2023-04-01T00:12:51.677Z,2.65
2023-04-01T00:13:51.758Z,2.80
2023-04-01T00:14:51.788Z,2.74
2023-04-01T00:15:51.862Z,2.53
2023-04-01T00:16:51.955Z,2.40
2023-04-01T00:17:51.987Z,2.25
2023-04-01T00:18:52.048Z,1.93
2023-04-01T00:19:52.089Z,2.03
2023-04-01T00:20:52.142Z,2.21
2023-04-01T00:21:52.141Z,3.34
2023-04-01T00:22:52.193Z,3.42
2023-04-01T00:23:52.343Z,3.02
2023-04-01T00:24:52.315Z,3.31
2023-04-01T00:25:52.392Z,3.72
2023-04-01T00:26:52.431Z,3.72
2023-04-01T00:27:52.431Z,4.35
2023-04-01T00:28:52.551Z,4.42
2023-04-01T00:29:52.589Z,4.18
2023-04-01T00:30:52.628Z,4.26
2023-04-01T00:31:52.722Z,4.47
2023-04-01T00:32:52.843Z,4.58
2023-04-01T00:33:52.832Z,4.91
2023-04-01T00:34:52.841Z,4.68
2023-04-01T00:35:52.930Z,4.93
2023-04-01T00:36:52.962Z,4.05
2023-04-01T00:37:53.014Z,4.35
2023-04-01T00:38:53.020Z,4.29
2023-04-01T00:39:53.037Z,4.03
2023-04-01T00:40:53.037Z,4.68
2023-04-01T00:41:53.134Z,4.07
2023-04-01T00:42:53.163Z,3.29
2023-04-01T00:43:53.219Z,3.61
2023-04-01T00:44:53.270Z,4.02
2023-04-01T00:45:53.321Z,4.07
2023-04-01T00:46:53.388Z,4.45
2023-04-01T00:47:53.439Z,4.47
2023-04-01T00:48:53.473Z,3.93
2023-04-01T00:49:53.541Z,3.89
2023-04-01T00:50:53.548Z,4.11
2023-04-01T00:51:53.577Z,3.42
2023-04-01T00:52:53.583Z,3.51
2023-04-01T00:53:54.045Z,3.86
2023-04-01T00:54:53.604Z,3.65
2023-04-01T00:55:53.609Z,3.23
2023-04-01T00:56:53.627Z,3.47
2023-04-01T00:57:53.625Z,3.58
2023-04-01T00:58:53.667Z,3.04
2023-04-01T00:59:53.644Z,2.86
2023-04-01T01:00:53.687Z,3.05
2023-04-01T01:01:53.659Z,3.49
2023-04-01T01:02:53.656Z,3.13
2023-04-01T01:03:53.670Z,2.74
2023-04-01T01:04:53.637Z,3.84
2023-04-01T01:05:53.663Z,3.65
2023-04-01T01:06:53.650Z,3.13
2023-04-01T01:07:53.689Z,2.95
2023-04-01T01:08:53.741Z,3.60
2023-04-01T01:09:53.709Z,3.21
2023-04-01T01:10:53.752Z,2.66
2023-04-01T01:11:53.770Z,2.59
2023-04-01T01:12:53.821Z,2.61
2023-04-01T01:13:53.895Z,2.10
2023-04-01T01:14:53.892Z,2.59
2023-04-01T01:15:53.895Z,2.77
2023-04-01T01:16:53.978Z,2.23
2023-04-01T01:17:54.078Z,2.39
2023-04-01T01:18:54.079Z,2.91
2023-04-01T01:19:53.988Z,2.84
2023-04-01T01:20:53.995Z,2.40
2023-04-01T01:21:53.990Z,1.99
2023-04-01T01:22:54.038Z,2.18
2023-04-01T01:23:54.016Z,2.48
2023-04-01T01:24:54.069Z,2.28
2023-04-01T01:25:54.084Z,2.16
2023-04-01T01:26:54.080Z,1.79
2023-04-01T01:27:54.077Z,2.24
2023-04-01T01:28:54.115Z,2.27
2023-04-01T01:29:54.143Z,1.74
2023-04-01T01:30:54.176Z,1.76
2023-04-01T01:31:54.157Z,2.29
2023-04-01T01:32:54.251Z,1.76
2023-04-01T01:33:54.169Z,1.60
2023-04-01T01:34:54.240Z,2.41
2023-04-01T01:35:54.262Z,1.68
2023-04-01T01:36:54.243Z,1.69
2023-04-01T01:37:54.255Z,2.50
2023-04-01T01:38:54.259Z,2.61
2023-04-01T01:39:54.299Z,2.74
2023-04-01T01:40:54.307Z,4.32
2023-04-01T01:41:54.328Z,3.04
2023-04-01T01:42:54.328Z,3.48
2023-04-01T01:43:54.380Z,3.05
2023-04-01T01:44:54.411Z,2.42
2023-04-01T01:45:54.406Z,3.12
2023-04-01T01:46:54.413Z,2.93
2023-04-01T01:47:54.436Z,2.35
2023-04-01T01:48:54.419Z,2.45
2023-04-01T01:49:54.482Z,2.29
2023-04-01T01:50:54.445Z,2.27
2023-04-01T01:51:54.455Z,2.36
2023-04-01T01:52:54.499Z,2.45
2023-04-01T01:53:54.512Z,3.41
2023-04-01T01:54:54.525Z,3.37
2023-04-01T01:55:54.470Z,4.85
2023-04-01T01:56:54.497Z,2.92
2023-04-01T01:57:54.496Z,4.23
2023-04-01T01:58:54.494Z,4.07
2023-04-01T01:59:54.533Z,3.59
2023-04-01T02:00:54.526Z,3.44
2023-04-01T02:01:54.581Z,3.50
2023-04-01T02:02:54.548Z,2.72
2023-04-01T02:03:54.539Z,3.25
2023-04-01T02:04:54.698Z,3.27
2023-04-01T02:05:54.600Z,2.32
2023-04-01T02:06:54.602Z,2.20
2023-04-01T02:07:54.600Z,2.22
2023-04-01T02:08:54.612Z,1.94
2023-04-01T02:09:54.727Z,1.79
2023-04-01T02:10:54.687Z,2.10
2023-04-01T02:11:54.695Z,1.98
2023-04-01T02:12:54.759Z,2.13
2023-04-01T02:13:54.750Z,2.21
2023-04-01T02:14:54.808Z,2.65
2023-04-01T02:15:54.809Z,3.00
2023-04-01T02:16:54.787Z,2.78
2023-04-01T02:17:54.880Z,3.06
2023-04-01T02:18:54.831Z,2.81
2023-04-01T02:19:54.847Z,3.64
2023-04-01T02:20:54.884Z,2.63
2023-04-01T02:21:54.853Z,3.02
2023-04-01T02:22:54.911Z,2.92
2023-04-01T02:23:54.980Z,3.15
2023-04-01T02:24:54.988Z,3.25
2023-04-01T02:25:54.992Z,3.61
2023-04-01T02:26:55.015Z,3.23
2023-04-01T02:27:55.040Z,2.77
2023-04-01T02:28:55.006Z,2.67
2023-04-01T02:29:55.057Z,2.79
2023-04-01T02:30:55.039Z,2.54
2023-04-01T02:31:55.202Z,2.75
2023-04-01T02:32:55.119Z,2.68
2023-04-01T02:33:55.080Z,2.71
2023-04-01T02:34:55.100Z,2.64
2023-04-01T02:35:55.182Z,3.13
2023-04-01T02:36:55.131Z,2.80
2023-04-01T02:37:55.122Z,3.16
2023-04-01T02:38:55.131Z,2.67
2023-04-01T02:39:55.208Z,2.86
2023-04-01T02:40:55.213Z,3.09
2023-04-01T02:41:55.216Z,2.96
2023-04-01T02:42:55.242Z,2.84
2023-04-01T02:43:55.286Z,3.20
2023-04-01T02:44:55.327Z,2.98
2023-04-01T02:45:55.349Z,3.25
2023-04-01T02:46:55.434Z,3.31
2023-04-01T02:47:55.469Z,2.54
2023-04-01T02:48:55.476Z,3.14
2023-04-01T02:49:55.545Z,3.20
2023-04-01T02:50:55.508Z,2.61
2023-04-01T02:51:55.549Z,3.20
2023-04-01T02:52:55.563Z,3.49
2023-04-01T02:53:55.638Z,2.63
2023-04-01T02:54:55.661Z,2.81
2023-04-01T02:55:55.646Z,3.07
2023-04-01T02:56:55.682Z,2.83
2023-04-01T02:57:55.741Z,2.40
2023-04-01T02:58:55.734Z,2.78
2023-04-01T02:59:55.769Z,2.26
2023-04-01T03:00:55.825Z,2.32
2023-04-01T03:01:55.818Z,2.46
2023-04-01T03:02:55.899Z,2.77
2023-04-01T03:03:55.792Z,2.52
2023-04-01T03:04:55.867Z,2.75
2023-04-01T03:05:55.886Z,2.36
2023-04-01T03:06:55.869Z,2.51
2023-04-01T03:07:55.992Z,2.62
2023-04-01T03:08:55.938Z,2.28
2023-04-01T03:09:56.000Z,2.72
2023-04-01T03:10:56.052Z,2.89
2023-04-01T03:11:56.111Z,2.68
2023-04-01T03:12:56.171Z,2.24
2023-04-01T03:13:56.208Z,2.56
2023-04-01T03:14:56.233Z,1.82
2023-04-01T03:15:56.281Z,2.51
2023-04-01T03:16:56.430Z,2.02
2023-04-01T03:17:56.350Z,2.81
2023-04-01T03:18:56.381Z,2.58
2023-04-01T03:19:56.352Z,2.28
2023-04-01T03:20:56.376Z,2.66
2023-04-01T03:21:56.392Z,2.64
2023-04-01T03:22:56.390Z,2.90
2023-04-01T03:23:56.411Z,2.82
2023-04-01T03:24:56.442Z,2.64
2023-04-01T03:25:56.506Z,2.46
2023-04-01T03:26:56.469Z,2.73
2023-04-01T03:27:56.481Z,2.75
2023-04-01T03:28:56.573Z,2.88
2023-04-01T03:29:56.618Z,2.96
2023-04-01T03:30:56.586Z,2.81
2023-04-01T03:31:56.574Z,2.94
2023-04-01T03:32:56.661Z,2.71
2023-04-01T03:33:56.679Z,2.65
2023-04-01T03:34:56.766Z,2.69
2023-04-01T03:35:56.775Z,2.63
2023-04-01T03:36:56.804Z,2.38
2023-04-01T03:37:56.856Z,2.80
2023-04-01T03:38:56.901Z,2.72
2023-04-01T03:39:56.922Z,2.71
2023-04-01T03:40:56.978Z,2.93
2023-04-01T03:41:56.958Z,3.15
2023-04-01T03:42:57.048Z,2.83
2023-04-01T03:43:57.060Z,2.72
2023-04-01T03:44:57.099Z,2.62
2023-04-01T03:45:57.143Z,2.78
2023-04-01T03:46:57.121Z,2.62
2023-04-01T03:47:57.171Z,2.93
2023-04-01T03:48:57.225Z,2.99
2023-04-01T03:49:57.242Z,2.42
2023-04-01T03:50:57.284Z,2.60
2023-04-01T03:51:57.362Z,2.94
2023-04-01T03:52:57.440Z,2.67
2023-04-01T03:53:57.502Z,2.94
2023-04-01T03:54:57.893Z,2.88
2023-04-01T03:55:57.629Z,2.98
2023-04-01T03:56:57.698Z,2.85
2023-04-01T03:57:57.698Z,3.05
2023-04-01T03:58:57.757Z,3.45
2023-04-01T03:59:57.815Z,2.49
2023-04-01T04:00:57.779Z,3.22
2023-04-01T04:01:57.814Z,2.67
2023-04-01T04:02:57.942Z,2.95
2023-04-01T04:03:57.852Z,3.01
2023-04-01T04:04:57.894Z,3.03
2023-04-01T04:05:57.918Z,3.11
2023-04-01T04:06:57.950Z,3.50
2023-04-01T04:07:57.983Z,2.69
2023-04-01T04:08:57.990Z,3.05
2023-04-01T04:09:58.076Z,3.24
2023-04-01T04:10:58.056Z,2.77
2023-04-01T04:11:58.078Z,2.98
2023-04-01T04:12:58.118Z,3.20
2023-04-01T04:13:58.413Z,3.57
2023-04-01T04:14:58.219Z,3.40
2023-04-01T04:15:58.236Z,3.34
2023-04-01T04:16:58.212Z,3.25
2023-04-01T04:17:58.259Z,2.84
2023-04-01T04:18:58.252Z,3.21
2023-04-01T04:19:58.259Z,3.34
2023-04-01T04:20:58.279Z,3.99
2023-04-01T04:21:58.292Z,3.45
2023-04-01T04:22:58.355Z,3.57
2023-04-01T04:23:58.352Z,3.75
2023-04-01T04:24:58.358Z,3.11
2023-04-01T04:25:58.372Z,3.50
2023-04-01T04:26:58.390Z,3.33
2023-04-01T04:27:58.399Z,2.81
2023-04-01T04:28:58.471Z,3.67
2023-04-01T04:29:58.540Z,3.37
2023-04-01T04:30:58.507Z,3.23
2023-04-01T04:31:58.660Z,3.02
2023-04-01T04:32:58.606Z,3.00
2023-04-01T04:33:58.621Z,3.19
2023-04-01T04:34:58.705Z,3.54
2023-04-01T04:35:58.766Z,4.08
2023-04-01T04:36:58.755Z,4.63
2023-04-01T04:37:58.795Z,4.04
2023-04-01T04:38:58.818Z,4.71
2023-04-01T04:39:58.818Z,4.54
2023-04-01T04:40:58.807Z,4.81
2023-04-01T04:41:58.824Z,5.91
2023-04-01T04:42:58.889Z,5.44
2023-04-01T04:43:58.900Z,5.92
2023-04-01T04:44:58.903Z,6.67
2023-04-01T04:45:58.904Z,6.75
2023-04-01T04:46:58.952Z,5.94
2023-04-01T04:47:58.932Z,6.44
2023-04-01T04:48:58.990Z,6.86
2023-04-01T04:49:59.096Z,7.12
2023-04-01T04:50:58.993Z,6.18
2023-04-01T04:51:59.063Z,6.12
2023-04-01T04:52:59.103Z,5.98
2023-04-01T04:53:59.185Z,6.65
2023-04-01T04:54:59.240Z,6.28
2023-04-01T04:55:59.294Z,6.72
2023-04-01T04:56:59.408Z,7.62
2023-04-01T04:57:59.450Z,7.68
2023-04-01T04:58:59.522Z,8.19
2023-04-01T04:59:59.490Z,8.72
2023-04-01T05:00:59.541Z,7.98
2023-04-01T05:01:59.476Z,8.78
2023-04-01T05:02:59.671Z,7.57
2023-04-01T05:03:59.542Z,6.01
2023-04-01T05:04:59.621Z,6.10
2023-04-01T05:05:59.575Z,7.34
2023-04-01T05:06:59.594Z,7.40
2023-04-01T05:07:59.612Z,6.67
2023-04-01T05:08:59.618Z,5.86
2023-04-01T05:09:59.684Z,6.48
2023-04-01T05:10:59.691Z,6.11
2023-04-01T05:11:59.704Z,6.06
2023-04-01T05:12:59.767Z,5.65
2023-04-01T05:13:59.726Z,5.77
2023-04-01T05:14:59.830Z,5.54
2023-04-01T05:15:59.802Z,5.71
2023-04-01T05:16:59.941Z,6.36
2023-04-01T05:17:59.845Z,6.47
2023-04-01T05:18:59.813Z,6.97
2023-04-01T05:19:59.838Z,6.05
2023-04-01T05:20:59.905Z,5.62
2023-04-01T05:21:59.880Z,6.03
2023-04-01T05:22:59.912Z,6.00
2023-04-01T05:23:59.893Z,6.15
2023-04-01T05:24:59.935Z,6.37
2023-04-01T05:25:59.943Z,6.20
2023-04-01T05:26:59.901Z,5.44
2023-04-01T05:27:59.951Z,5.66
2023-04-01T05:28:59.985Z,6.03
2023-04-01T05:30:00.047Z,5.79
2023-04-01T05:31:00.115Z,5.82
2023-04-01T05:32:00.145Z,5.37
2023-04-01T05:33:00.189Z,5.61
2023-04-01T05:34:00.147Z,5.94
2023-04-01T05:35:00.192Z,5.82
2023-04-01T05:36:00.201Z,6.15
2023-04-01T05:37:00.156Z,5.84
2023-04-01T05:38:00.173Z,6.47
2023-04-01T05:39:00.181Z,5.76
2023-04-01T05:40:00.178Z,5.65
2023-04-01T05:41:00.186Z,5.94
2023-04-01T05:42:00.200Z,5.83
2023-04-01T05:43:00.243Z,5.51
2023-04-01T05:44:00.252Z,5.57
2023-04-01T05:45:00.223Z,5.59
2023-04-01T05:46:00.260Z,5.87
2023-04-01T05:47:00.252Z,5.31
2023-04-01T05:48:00.348Z,5.81
2023-04-01T05:49:00.248Z,5.13
2023-04-01T05:50:00.303Z,6.21
2023-04-01T05:51:00.325Z,6.10
2023-04-01T05:52:00.337Z,7.19
2023-04-01T05:53:00.331Z,7.37
2023-04-01T05:54:00.371Z,6.82
2023-04-01T05:55:00.370Z,6.42
2023-04-01T05:56:00.377Z,6.18
2023-04-01T05:57:00.381Z,6.40
2023-04-01T05:58:00.374Z,6.57
2023-04-01T05:59:00.364Z,6.79
2023-04-01T06:00:00.412Z,7.28
2023-04-01T06:01:09.442Z,6.29
2023-04-01T06:02:01.335Z,5.38
2023-04-01T06:03:00.461Z,6.21
2023-04-01T06:04:00.593Z,5.41
2023-04-01T06:05:00.362Z,6.39
2023-04-01T06:06:00.354Z,5.72
2023-04-01T06:07:00.342Z,6.31
2023-04-01T06:08:00.313Z,5.54
2023-04-01T06:09:00.315Z,4.90
2023-04-01T06:10:00.359Z,4.97
2023-04-01T06:11:00.379Z,4.79
2023-04-01T06:12:00.392Z,5.32
2023-04-01T06:13:00.415Z,5.30
2023-04-01T06:14:00.436Z,4.69
2023-04-01T06:15:00.456Z,4.10
2023-04-01T06:16:00.454Z,5.11
2023-04-01T06:17:00.440Z,4.41
2023-04-01T06:18:00.503Z,4.80
2023-04-01T06:19:00.518Z,3.58
2023-04-01T06:20:00.550Z,5.29
2023-04-01T06:21:00.611Z,4.32
2023-04-01T06:22:00.664Z,4.92
2023-04-01T06:23:00.669Z,4.58
2023-04-01T06:24:00.734Z,5.13
2023-04-01T06:25:00.862Z,4.82
2023-04-01T06:26:00.870Z,4.66
2023-04-01T06:27:00.945Z,4.77
2023-04-01T06:28:00.994Z,5.17
2023-04-01T06:29:01.021Z,4.65
2023-04-01T06:30:01.042Z,5.38
2023-04-01T06:31:01.052Z,5.44
2023-04-01T06:32:01.278Z,5.76
2023-04-01T06:33:01.189Z,5.59
2023-04-01T06:34:01.227Z,5.93
2023-04-01T06:35:01.322Z,6.37
2023-04-01T06:36:01.402Z,6.21
2023-04-01T06:37:01.418Z,5.85
2023-04-01T06:38:01.443Z,5.78
2023-04-01T06:39:01.540Z,5.63
2023-04-01T06:40:01.619Z,5.57
2023-04-01T06:41:01.652Z,4.67
2023-04-01T06:42:01.690Z,5.87
2023-04-01T06:43:01.774Z,6.39
2023-04-01T06:44:01.862Z,6.24
2023-04-01T06:45:01.888Z,5.73
2023-04-01T06:46:01.959Z,5.23
2023-04-01T06:47:01.976Z,5.49
2023-04-01T06:48:02.076Z,6.00
2023-04-01T06:49:02.082Z,6.15
2023-04-01T06:50:02.156Z,5.44
2023-04-01T06:51:02.203Z,6.20
2023-04-01T06:52:02.241Z,5.24
2023-04-01T06:53:02.316Z,5.13
2023-04-01T06:54:02.360Z,6.06
2023-04-01T06:55:02.431Z,5.51
2023-04-01T06:56:02.498Z,6.29
2023-04-01T06:57:02.573Z,5.94
2023-04-01T06:58:02.578Z,5.35
2023-04-01T06:59:02.660Z,5.77
2023-04-01T07:00:02.678Z,6.10
2023-04-01T07:01:02.702Z,5.69
2023-04-01T07:02:02.732Z,5.21
2023-04-01T07:03:03.759Z,6.03
2023-04-01T07:04:02.813Z,5.65
2023-04-01T07:05:02.877Z,5.76
2023-04-01T07:06:02.889Z,5.38
2023-04-01T07:07:02.835Z,5.50
2023-04-01T07:08:03.041Z,5.19
2023-04-01T07:09:04.317Z,4.79
2023-04-01T07:10:02.978Z,4.56
2023-04-01T07:11:02.910Z,4.71
2023-04-01T07:12:02.887Z,5.06
2023-04-01T07:13:02.904Z,4.91
2023-04-01T07:14:02.902Z,5.36
2023-04-01T07:15:02.964Z,5.14
2023-04-01T07:16:02.903Z,4.92
2023-04-01T07:17:02.878Z,5.24
2023-04-01T07:18:02.968Z,5.73
2023-04-01T07:19:02.870Z,5.32
2023-04-01T07:20:02.896Z,5.55
2023-04-01T07:21:02.839Z,5.05
2023-04-01T07:22:03.042Z,5.68
2023-04-01T07:23:02.873Z,4.64
2023-04-01T07:24:02.835Z,5.37
2023-04-01T07:25:02.825Z,5.56
2023-04-01T07:26:02.828Z,5.63
2023-04-01T07:27:02.772Z,5.64
2023-04-01T07:28:02.841Z,6.19
2023-04-01T07:29:02.764Z,5.81
2023-04-01T07:30:02.810Z,5.81
2023-04-01T07:31:02.767Z,6.12
2023-04-01T07:32:02.740Z,6.44
2023-04-01T07:33:02.798Z,5.00
2023-04-01T07:34:02.769Z,6.51
2023-04-01T07:35:02.769Z,5.37
2023-04-01T07:36:02.757Z,4.70
2023-04-01T07:37:02.739Z,5.07
2023-04-01T07:38:02.744Z,5.29
2023-04-01T07:39:02.786Z,7.10
2023-04-01T07:40:02.746Z,6.34
2023-04-01T07:41:02.702Z,6.92
2023-04-01T07:42:02.681Z,6.50
2023-04-01T07:43:02.703Z,6.07
2023-04-01T07:44:02.664Z,6.80
2023-04-01T07:45:02.743Z,6.08
2023-04-01T07:46:02.736Z,6.17
2023-04-01T07:47:02.749Z,6.42
2023-04-01T07:48:02.704Z,6.68
2023-04-01T07:49:02.643Z,8.15
2023-04-01T07:50:02.746Z,7.86
2023-04-01T07:51:02.640Z,6.66
2023-04-01T07:52:02.639Z,6.23
2023-04-01T07:53:02.642Z,6.19
2023-04-01T07:54:02.647Z,5.86
2023-04-01T07:55:02.625Z,5.91
2023-04-01T07:56:02.590Z,6.09
2023-04-01T07:57:02.641Z,6.78
2023-04-01T07:58:02.574Z,6.68
2023-04-01T07:59:02.611Z,6.00
2023-04-01T08:00:02.596Z,6.74
2023-04-01T08:01:02.572Z,6.15
2023-04-01T08:02:02.561Z,5.78
2023-04-01T08:03:02.617Z,6.19
2023-04-01T08:04:02.748Z,6.70
2023-04-01T08:05:02.597Z,5.93
2023-04-01T08:06:02.533Z,5.81
2023-04-01T08:07:02.491Z,5.76
2023-04-01T08:08:02.556Z,5.49
2023-04-01T08:09:02.497Z,6.06
2023-04-01T08:10:02.544Z,5.90
2023-04-01T08:11:02.522Z,6.19
2023-04-01T08:12:02.480Z,5.61
2023-04-01T08:13:02.455Z,5.77
2023-04-01T08:14:02.476Z,6.27
2023-04-01T08:15:02.498Z,5.65
2023-04-01T08:16:02.468Z,6.71
2023-04-01T08:17:02.435Z,5.97
2023-04-01T08:18:02.457Z,6.07
2023-04-01T08:19:02.484Z,6.65
2023-04-01T08:20:02.522Z,6.02
2023-04-01T08:21:02.550Z,5.72
2023-04-01T08:22:02.541Z,6.69
2023-04-01T08:23:02.599Z,6.03
2023-04-01T08:24:02.594Z,6.80
2023-04-01T08:25:02.650Z,5.71
2023-04-01T08:26:02.702Z,6.48
2023-04-01T08:27:02.727Z,5.48
2023-04-01T08:28:02.742Z,5.74
2023-04-01T08:29:02.811Z,6.04
2023-04-01T08:30:02.799Z,6.07
2023-04-01T08:31:02.810Z,6.27
2023-04-01T08:32:02.929Z,5.18
2023-04-01T08:33:02.898Z,5.88
2023-04-01T08:34:02.865Z,5.95
2023-04-01T08:35:02.905Z,5.41
2023-04-01T08:36:02.966Z,5.00
2023-04-01T08:37:03.002Z,4.78
2023-04-01T08:38:03.071Z,4.97
2023-04-01T08:39:03.061Z,4.47
2023-04-01T08:40:03.171Z,4.40
2023-04-01T08:41:03.241Z,4.23
2023-04-01T08:42:03.265Z,4.10
2023-04-01T08:43:03.293Z,3.62
2023-04-01T08:44:03.356Z,3.78
2023-04-01T08:45:03.351Z,3.70
2023-04-01T08:46:03.459Z,3.61
2023-04-01T08:47:03.453Z,3.14
2023-04-01T08:48:03.549Z,3.44
2023-04-01T08:49:03.534Z,3.43
2023-04-01T08:50:03.597Z,3.61
2023-04-01T08:51:05.220Z,2.83
2023-04-01T08:52:03.547Z,2.94
2023-04-01T08:53:03.540Z,2.73
2023-04-01T08:54:03.580Z,3.06
2023-04-01T08:55:03.595Z,3.21
2023-04-01T08:56:03.640Z,1.97
2023-04-01T08:57:03.633Z,2.01
2023-04-01T08:58:03.551Z,1.57
2023-04-01T08:59:03.629Z,1.46
2023-04-01T09:00:03.588Z,1.38
2023-04-01T09:01:03.548Z,1.54
2023-04-01T09:02:03.518Z,1.16
2023-04-01T09:03:03.798Z,1.63
2023-04-01T09:04:03.654Z,1.88
2023-04-01T09:05:03.488Z,1.32
2023-04-01T09:06:03.469Z,1.79
2023-04-01T09:07:03.466Z,1.10
2023-04-01T09:08:03.479Z,1.75
2023-04-01T09:09:03.452Z,1.71
2023-04-01T09:10:03.500Z,2.54
2023-04-01T09:11:03.425Z,1.85
2023-04-01T09:12:03.478Z,1.98
2023-04-01T09:13:03.435Z,1.92
2023-04-01T09:14:03.434Z,1.73
2023-04-01T09:15:03.408Z,1.64
2023-04-01T09:16:03.471Z,1.56
2023-04-01T09:17:03.377Z,1.50
2023-04-01T09:18:03.536Z,1.07
2023-04-01T09:19:03.414Z,1.51
2023-04-01T09:20:03.405Z,1.26
2023-04-01T09:21:03.395Z,1.42
2023-04-01T09:22:03.390Z,1.15
2023-04-01T09:23:03.343Z,0.94
2023-04-01T09:24:03.343Z,1.15
2023-04-01T09:25:03.325Z,0.90
2023-04-01T09:26:03.325Z,1.24
2023-04-01T09:27:03.349Z,0.49
2023-04-01T09:28:03.327Z,0.62
2023-04-01T09:29:03.321Z,0.64
2023-04-01T09:30:03.321Z,4.08
2023-04-01T09:31:03.382Z,0.89
2023-04-01T09:32:03.276Z,1.18
2023-04-01T09:33:03.377Z,0.90
2023-04-01T09:34:03.267Z,0.59
2023-04-01T09:35:03.298Z,0.62
2023-04-01T09:36:03.301Z,0.70
2023-04-01T09:37:03.299Z,0.47
2023-04-01T09:38:03.280Z,0.71
2023-04-01T09:39:03.260Z,0.55
2023-04-01T09:40:03.273Z,0.42
2023-04-01T09:41:03.252Z,0.43
2023-04-01T09:42:03.244Z,0.37
2023-04-01T09:43:03.217Z,0.44
2023-04-01T09:44:03.203Z,0.57
2023-04-01T09:45:03.279Z,0.50
2023-04-01T09:46:03.232Z,0.39
2023-04-01T09:47:03.233Z,0.51
2023-04-01T09:48:03.200Z,0.55
2023-04-01T09:49:03.180Z,0.44
2023-04-01T09:50:03.207Z,0.44
2023-04-01T09:51:03.217Z,0.45
2023-04-01T09:52:03.197Z,0.47
2023-04-01T09:53:03.180Z,0.47
2023-04-01T09:54:03.248Z,0.46
2023-04-01T09:55:03.267Z,0.53
2023-04-01T09:56:03.264Z,0.64
2023-04-01T09:57:03.321Z,0.51
2023-04-01T09:58:03.335Z,0.28
2023-04-01T09:59:03.393Z,0.56
2023-04-01T10:00:03.475Z,0.50
2023-04-01T10:01:03.577Z,0.50
2023-04-01T10:02:03.709Z,0.40
2023-04-01T10:03:03.692Z,0.44
2023-04-01T10:04:03.668Z,0.41
2023-04-01T10:05:03.705Z,0.44
2023-04-01T10:06:04.271Z,0.37
2023-04-01T10:07:03.703Z,0.28
2023-04-01T10:08:03.726Z,0.26
2023-04-01T10:09:03.759Z,0.33
2023-04-01T10:10:03.744Z,0.43
2023-04-01T10:11:03.741Z,0.39
2023-04-01T10:12:03.782Z,0.46
2023-04-01T10:13:03.848Z,0.41
2023-04-01T10:14:03.882Z,0.32
2023-04-01T10:15:03.887Z,0.55
2023-04-01T10:16:03.940Z,0.21
2023-04-01T10:17:03.953Z,0.44
2023-04-01T10:18:04.042Z,0.37
2023-04-01T10:19:04.000Z,0.25
2023-04-01T10:20:04.008Z,0.25
2023-04-01T10:21:04.061Z,0.48
2023-04-01T10:22:04.135Z,0.45
2023-04-01T10:23:04.182Z,0.30
2023-04-01T10:24:04.168Z,0.44
2023-04-01T10:25:06.000Z,0.27
2023-04-01T10:26:04.218Z,0.38
2023-04-01T10:27:04.267Z,0.32
2023-04-01T10:28:04.315Z,0.43
2023-04-01T10:29:04.370Z,0.37
2023-04-01T10:30:04.418Z,0.38
2023-04-01T10:31:04.402Z,0.51
2023-04-01T10:32:05.192Z,0.29
2023-04-01T10:33:04.546Z,0.48
2023-04-01T10:34:04.522Z,0.50
2023-04-01T10:35:04.581Z,0.44
2023-04-01T10:36:04.623Z,0.23
2023-04-01T10:37:04.653Z,0.52
2023-04-01T10:38:04.640Z,0.73
2023-04-01T10:39:04.698Z,0.51
2023-04-01T10:40:04.731Z,0.37
2023-04-01T10:41:04.715Z,0.29
2023-04-01T10:42:04.767Z,0.47
2023-04-01T10:43:04.790Z,0.59
2023-04-01T10:44:04.824Z,0.23
2023-04-01T10:45:04.888Z,0.40
2023-04-01T10:46:04.900Z,0.26
2023-04-01T10:47:04.853Z,0.46
2023-04-01T10:48:04.964Z,0.22
2023-04-01T10:49:04.915Z,0.30
2023-04-01T10:50:04.991Z,0.23
2023-04-01T10:51:05.025Z,0.22
2023-04-01T10:52:04.986Z,0.24
2023-04-01T10:53:06.156Z,0.38
2023-04-01T10:54:05.017Z,0.22
2023-04-01T10:55:05.081Z,0.34
2023-04-01T10:56:05.128Z,0.17
2023-04-01T10:57:05.213Z,0.30
2023-04-01T10:58:05.240Z,0.32
2023-04-01T10:59:05.223Z,0.21
2023-04-01T11:00:05.282Z,0.24
2023-04-01T11:01:05.381Z,0.18
2023-04-01T11:02:11.448Z,0.25
2023-04-01T11:03:06.371Z,0.64
2023-04-01T11:04:05.280Z,0.18
2023-04-01T11:05:05.268Z,0.25
2023-04-01T11:06:05.277Z,0.25
2023-04-01T11:07:05.247Z,0.21
2023-04-01T11:08:06.424Z,0.15
2023-04-01T11:09:05.239Z,0.32
2023-04-01T11:10:05.285Z,0.37
2023-04-01T11:11:05.216Z,0.32
2023-04-01T11:12:05.238Z,0.20
2023-04-01T11:13:05.183Z,0.38
2023-04-01T11:14:05.182Z,0.25
2023-04-01T11:15:05.212Z,0.39
2023-04-01T11:16:05.215Z,0.26
2023-04-01T11:17:05.213Z,0.36
2023-04-01T11:18:05.361Z,0.41
2023-04-01T11:19:05.281Z,0.44
2023-04-01T11:20:05.348Z,0.81
2023-04-01T11:21:05.349Z,0.58
2023-04-01T11:22:05.376Z,0.46
2023-04-01T11:23:05.408Z,0.44
2023-04-01T11:24:06.150Z,0.23
2023-04-01T11:25:05.510Z,0.31
2023-04-01T11:26:05.508Z,0.14
2023-04-01T11:27:05.578Z,0.28
2023-04-01T11:28:05.575Z,0.29
2023-04-01T11:29:05.661Z,0.24
2023-04-01T11:30:05.607Z,0.30
2023-04-01T11:31:05.646Z,0.36
2023-04-01T11:32:05.646Z,0.63
2023-04-01T11:33:05.765Z,0.18
2023-04-01T11:34:05.689Z,0.26
2023-04-01T11:35:05.753Z,0.19
2023-04-01T11:36:05.791Z,0.25
2023-04-01T11:37:05.806Z,0.31
2023-04-01T11:38:05.809Z,0.32
2023-04-01T11:39:05.808Z,0.22
2023-04-01T11:40:05.899Z,0.32
2023-04-01T11:41:05.942Z,0.26
2023-04-01T11:42:05.983Z,0.20
2023-04-01T11:43:06.037Z,0.43
2023-04-01T11:44:06.036Z,0.41
2023-04-01T11:45:06.110Z,0.26
2023-04-01T11:46:06.276Z,0.31
2023-04-01T11:47:06.127Z,0.33
2023-04-01T11:48:06.206Z,0.54
2023-04-01T11:49:06.196Z,0.37
2023-04-01T11:50:06.300Z,0.15
2023-04-01T11:51:06.293Z,0.37
2023-04-01T11:52:06.305Z,0.31
2023-04-01T11:53:06.379Z,0.12
2023-04-01T11:54:06.423Z,0.41
2023-04-01T11:55:06.492Z,0.23
2023-04-01T11:56:06.537Z,0.20
2023-04-01T11:57:06.597Z,0.16
2023-04-01T11:58:06.628Z,0.17
2023-04-01T11:59:06.660Z,0.57
2023-04-01T12:00:06.737Z,0.27
2023-04-01T12:01:06.738Z,0.46
2023-04-01T12:02:06.804Z,0.47
2023-04-01T12:03:06.968Z,0.46
2023-04-01T12:04:07.027Z,0.28
2023-04-01T12:05:06.953Z,0.21
2023-04-01T12:06:07.017Z,0.59
2023-04-01T12:07:07.008Z,0.27
2023-04-01T12:08:07.013Z,0.52
2023-04-01T12:09:07.038Z,0.73
2023-04-01T12:10:07.095Z,0.74
2023-04-01T12:11:07.111Z,0.20
2023-04-01T12:12:07.137Z,0.35
2023-04-01T12:13:07.192Z,0.22
2023-04-01T12:14:07.155Z,0.29
2023-04-01T12:15:07.228Z,0.29
2023-04-01T12:16:07.293Z,0.38
2023-04-01T12:17:07.252Z,0.53
2023-04-01T12:18:07.271Z,0.19
2023-04-01T12:19:08.089Z,0.28
2023-04-01T12:20:07.266Z,0.42
2023-04-01T12:21:07.263Z,0.25
2023-04-01T12:22:07.270Z,0.25
2023-04-01T12:23:07.308Z,0.26
2023-04-01T12:24:07.328Z,0.19
2023-04-01T12:25:07.365Z,0.43
2023-04-01T12:26:07.417Z,0.34
2023-04-01T12:27:07.488Z,0.13
2023-04-01T12:28:07.484Z,0.29
2023-04-01T12:29:07.530Z,0.17
2023-04-01T12:30:07.585Z,0.23
2023-04-01T12:31:07.661Z,0.27
2023-04-01T12:32:07.799Z,0.26
2023-04-01T12:33:07.783Z,0.36
2023-04-01T12:34:07.712Z,0.23
2023-04-01T12:35:07.817Z,0.33
2023-04-01T12:36:07.813Z,0.39
2023-04-01T12:37:07.785Z,0.21
2023-04-01T12:38:07.820Z,0.28
2023-04-01T12:39:07.906Z,0.16
2023-04-01T12:40:07.910Z,0.37
2023-04-01T12:41:07.917Z,0.41
2023-04-01T12:42:07.953Z,0.23
2023-04-01T12:43:07.963Z,0.17
2023-04-01T12:44:07.966Z,0.18
2023-04-01T12:45:08.076Z,0.08
2023-04-01T12:46:08.187Z,0.11
2023-04-01T12:47:08.172Z,0.24
2023-04-01T12:48:08.191Z,0.18
2023-04-01T12:49:08.177Z,0.14
2023-04-01T12:50:08.259Z,0.12
2023-04-01T12:51:08.224Z,0.19
2023-04-01T12:52:08.200Z,0.32
2023-04-01T12:53:08.269Z,0.07
2023-04-01T12:54:08.265Z,0.12
2023-04-01T12:55:08.379Z,0.21
2023-04-01T12:56:08.424Z,0.12
2023-04-01T12:57:09.515Z,0.25
2023-04-01T12:58:08.476Z,0.18
2023-04-01T12:59:08.530Z,0.20
2023-04-01T13:00:08.685Z,0.34
2023-04-01T13:01:08.628Z,0.21
2023-04-01T13:02:08.637Z,0.42
2023-04-01T13:03:08.736Z,0.15
2023-04-01T13:04:08.765Z,0.11
2023-04-01T13:05:08.792Z,0.31
2023-04-01T13:06:08.835Z,0.18
2023-04-01T13:07:08.849Z,0.12
2023-04-01T13:08:08.922Z,0.24
2023-04-01T13:09:08.943Z,0.30
2023-04-01T13:10:08.941Z,0.31
2023-04-01T13:11:08.954Z,0.28
2023-04-01T13:12:08.968Z,0.30
2023-04-01T13:13:09.060Z,0.36
2023-04-01T13:14:11.864Z,0.25
2023-04-01T13:15:09.077Z,0.15
2023-04-01T13:16:09.060Z,0.17
2023-04-01T13:17:08.985Z,0.15
2023-04-01T13:18:09.087Z,0.20
2023-04-01T13:19:09.005Z,0.24